createdAt,value
2023-02-06T00:00:19.073Z,7.13
2023-02-06T00:02:49.325Z,13.48
2023-02-06T00:05:19.765Z,7.53
2023-02-06T00:07:50.251Z,5.63
2023-02-06T00:10:20.375Z,6.15
2023-02-06T00:12:53.223Z,5.00
2023-02-06T00:15:23.448Z,7.15
2023-02-06T00:17:53.528Z,7.53
2023-02-06T00:20:23.806Z,7.80
2023-02-06T00:22:54.149Z,9.02
2023-02-06T00:25:24.161Z,5.65
2023-02-06T00:27:56.879Z,8.00
2023-02-06T00:30:28.356Z,16.10
2023-02-06T00:32:58.392Z,8.43
2023-02-06T00:35:28.352Z,6.68
2023-02-06T00:37:59.965Z,8.15
2023-02-06T00:40:30.839Z,7.50
2023-02-06T00:43:03.481Z,8.65
2023-02-06T00:45:33.886Z,6.32
2023-02-06T00:48:04.908Z,5.28
2023-02-06T00:50:35.036Z,8.20
2023-02-06T00:53:05.938Z,6.03
2023-02-06T00:55:36.144Z,6.60
2023-02-06T00:58:09.049Z,7.30
2023-02-06T01:00:39.169Z,7.30
2023-02-06T01:03:09.246Z,9.70
2023-02-06T01:05:39.308Z,7.32
2023-02-06T01:08:09.433Z,8.35
2023-02-06T01:10:39.509Z,8.48
2023-02-06T01:13:13.372Z,5.25
2023-02-06T01:15:44.668Z,7.35
2023-02-06T01:18:14.782Z,7.05
2023-02-06T01:20:44.903Z,7.43
2023-02-06T01:23:14.987Z,6.63
2023-02-06T01:25:45.029Z,8.00
2023-02-06T01:28:18.128Z,7.03
2023-02-06T01:30:48.272Z,7.82
2023-02-06T01:33:18.301Z,8.75
2023-02-06T01:35:48.731Z,7.80
2023-02-06T01:38:18.819Z,8.05
2023-02-06T01:40:48.821Z,8.20
2023-02-06T01:43:23.621Z,7.55
2023-02-06T01:45:53.684Z,7.93
2023-02-06T01:48:29.082Z,8.57
2023-02-06T01:51:00.767Z,8.40
2023-02-06T01:53:32.071Z,8.60
2023-02-06T01:56:04.864Z,7.57
2023-02-06T01:58:41.647Z,7.82
2023-02-06T02:01:12.425Z,8.25
2023-02-06T02:03:45.540Z,7.88
2023-02-06T02:06:19.065Z,7.07
2023-02-06T02:08:51.648Z,6.82
2023-02-06T02:11:24.612Z,6.88
2023-02-06T02:13:58.484Z,7.22
2023-02-06T02:16:41.848Z,6.50
2023-02-06T02:19:33.856Z,7.25
2023-02-06T02:22:30.324Z,8.07
2023-02-06T02:25:35.922Z,6.57
2023-02-06T02:28:38.207Z,5.57
2023-02-06T02:31:43.103Z,8.48
2023-02-06T02:34:44.688Z,5.78
2023-02-06T02:37:23.229Z,5.93
2023-02-06T02:40:02.343Z,7.85
2023-02-06T02:42:43.719Z,7.55
2023-02-06T02:45:22.330Z,6.40
2023-02-06T02:48:01.119Z,7.25
2023-02-06T02:50:35.705Z,7.18
2023-02-06T02:53:07.446Z,5.72
2023-02-06T02:55:37.983Z,5.32
2023-02-06T02:58:11.979Z,5.90
2023-02-06T03:00:46.458Z,7.38
2023-02-06T03:03:18.840Z,6.93
2023-02-06T03:06:06.307Z,7.25
2023-02-06T03:08:49.622Z,4.10
2023-02-06T03:11:22.226Z,5.75
2023-02-06T03:13:56.901Z,3.97
2023-02-06T03:16:32.177Z,6.28
2023-02-06T03:19:08.386Z,6.72
2023-02-06T03:21:43.303Z,4.82
2023-02-06T03:24:18.619Z,5.68
2023-02-06T03:26:52.230Z,7.40
2023-02-06T03:29:23.394Z,5.80
2023-02-06T03:31:59.751Z,6.70
2023-02-06T03:34:38.152Z,6.65
2023-02-06T03:37:11.433Z,6.00
2023-02-06T03:39:42.303Z,6.35
2023-02-06T03:42:16.334Z,7.05
2023-02-06T03:44:52.454Z,5.40
2023-02-06T03:47:25.885Z,5.38
2023-02-06T03:49:59.754Z,6.50
2023-02-06T03:52:38.314Z,6.53
2023-02-06T03:55:13.743Z,6.82
2023-02-06T03:57:47.640Z,6.57
2023-02-06T04:00:19.182Z,7.07
2023-02-06T04:02:50.635Z,6.63
2023-02-06T04:05:22.119Z,7.78
2023-02-06T04:07:56.860Z,6.50
2023-02-06T04:10:27.601Z,7.18
2023-02-06T04:12:58.522Z,6.85
2023-02-06T04:15:29.015Z,7.50
2023-02-06T04:18:01.291Z,8.13
2023-02-06T04:20:32.313Z,7.90
2023-02-06T04:25:34.857Z,7.28
2023-02-06T04:28:06.532Z,7.72
2023-02-06T04:33:06.656Z,6.50
2023-02-06T04:35:36.886Z,7.35
2023-02-06T04:38:09.744Z,6.00
2023-02-06T04:40:40.161Z,7.28
2023-02-06T04:43:10.255Z,7.10
2023-02-06T04:45:42.042Z,9.07
2023-02-06T04:48:12.079Z,5.88
2023-02-06T04:50:42.159Z,6.35
2023-02-06T04:53:15.232Z,7.28
2023-02-06T04:55:45.319Z,8.13
2023-02-06T04:58:15.609Z,6.15
2023-02-06T05:00:45.705Z,8.00
2023-02-06T05:03:15.670Z,7.80
2023-02-06T05:05:45.701Z,6.10
2023-02-06T05:08:18.323Z,6.78
2023-02-06T05:10:48.539Z,5.82
2023-02-06T05:13:18.752Z,9.70
2023-02-06T05:15:49.226Z,9.65
2023-02-06T05:18:19.300Z,7.50
2023-02-06T05:20:49.633Z,9.15
2023-02-06T05:23:22.562Z,6.20
2023-02-06T05:25:52.575Z,6.90
2023-02-06T05:28:22.911Z,8.43
2023-02-06T05:30:53.215Z,7.00
2023-02-06T05:33:23.321Z,5.95
2023-02-06T05:35:53.372Z,7.97
2023-02-06T05:38:26.015Z,10.00
2023-02-06T05:40:56.089Z,7.85
2023-02-06T05:43:26.106Z,7.68
2023-02-06T05:45:56.093Z,8.43
2023-02-06T05:48:28.887Z,8.27
2023-02-06T05:50:58.911Z,8.68
2023-02-06T05:53:31.592Z,7.68
2023-02-06T05:56:01.604Z,9.80
2023-02-06T05:58:31.569Z,8.70
2023-02-06T06:01:01.608Z,9.55
2023-02-06T06:03:33.423Z,8.05
2023-02-06T06:06:03.748Z,8.65
2023-02-06T06:08:37.224Z,8.85
2023-02-06T06:11:07.732Z,9.98
2023-02-06T06:13:41.043Z,9.35
2023-02-06T06:16:11.301Z,8.77
2023-02-06T06:18:41.312Z,10.45
2023-02-06T06:21:11.391Z,9.85
2023-02-06T06:23:44.205Z,9.45
2023-02-06T06:26:14.305Z,10.30
2023-02-06T06:28:44.723Z,10.25
2023-02-06T06:31:15.613Z,8.82
2023-02-06T06:33:46.115Z,8.43
2023-02-06T06:36:16.727Z,10.10
2023-02-06T06:41:19.401Z,8.73
2023-02-06T06:43:51.454Z,9.32
2023-02-06T06:46:21.866Z,7.80
2023-02-06T06:48:52.158Z,10.18
2023-02-06T06:51:22.217Z,9.43
2023-02-06T06:53:54.893Z,8.93
2023-02-06T06:56:24.987Z,9.13
2023-02-06T06:58:55.690Z,6.63
2023-02-06T07:03:55.644Z,10.20
2023-02-06T07:06:26.081Z,10.15
2023-02-06T07:08:58.991Z,9.57
2023-02-06T07:11:29.577Z,10.48
2023-02-06T07:16:30.428Z,8.52
2023-02-06T07:19:00.505Z,7.47
2023-02-06T07:21:30.615Z,8.45
2023-02-06T07:24:05.437Z,8.48
2023-02-06T07:26:35.755Z,7.85
2023-02-06T07:29:05.839Z,8.25
2023-02-06T07:31:35.876Z,8.93
2023-02-06T07:34:06.049Z,8.95
2023-02-06T07:36:36.462Z,9.32
2023-02-06T07:39:09.736Z,9.73
2023-02-06T07:41:39.870Z,17.83
2023-02-06T07:44:12.652Z,10.02
2023-02-06T07:46:43.029Z,8.43
2023-02-06T07:49:15.377Z,9.43
2023-02-06T07:51:45.946Z,20.13
2023-02-06T07:54:20.822Z,18.25
2023-02-06T07:56:51.000Z,18.27
2023-02-06T07:59:21.302Z,10.60
2023-02-06T08:01:51.406Z,11.20
2023-02-06T08:04:21.492Z,7.80
2023-02-06T08:06:51.550Z,17.15
2023-02-06T08:09:24.304Z,8.80
2023-02-06T08:11:54.564Z,9.10
2023-02-06T08:14:24.793Z,15.75
2023-02-06T08:16:55.321Z,8.63
2023-02-06T08:19:25.911Z,8.70
2023-02-06T08:21:56.346Z,16.08
2023-02-06T08:24:29.295Z,8.20
2023-02-06T08:26:59.441Z,9.02
2023-02-06T08:29:29.902Z,18.08
2023-02-06T08:32:00.216Z,8.77
2023-02-06T08:34:30.860Z,8.82
2023-02-06T08:37:01.207Z,15.70
2023-02-06T08:39:34.095Z,8.57
2023-02-06T08:42:04.215Z,16.38
2023-02-06T08:44:34.431Z,8.10
2023-02-06T08:47:09.985Z,9.00
2023-02-06T08:49:41.126Z,16.15
2023-02-06T08:52:11.131Z,8.60
2023-02-06T08:54:44.164Z,9.80
2023-02-06T08:57:15.109Z,15.07
2023-02-06T08:59:45.852Z,14.25
2023-02-06T09:04:46.090Z,8.23
2023-02-06T09:07:17.329Z,7.95
2023-02-06T09:09:50.125Z,15.02
2023-02-06T09:12:20.225Z,16.17
2023-02-06T09:14:50.754Z,13.82
2023-02-06T09:17:20.957Z,14.25
2023-02-06T09:19:51.047Z,14.93
2023-02-06T09:22:21.136Z,13.95
2023-02-06T09:24:57.052Z,14.77
2023-02-06T09:27:27.153Z,17.40
2023-02-06T09:29:57.468Z,16.00
2023-02-06T09:32:27.740Z,17.77
2023-02-06T09:34:57.805Z,14.65
2023-02-06T09:37:27.988Z,20.83
2023-02-06T09:40:00.871Z,17.30
2023-02-06T09:42:35.706Z,14.73
2023-02-06T09:45:11.925Z,14.98
2023-02-06T09:47:47.675Z,14.52
2023-02-06T09:50:26.994Z,14.88
2023-02-06T09:53:14.333Z,14.38
2023-02-06T09:55:48.872Z,14.32
2023-02-06T09:58:29.501Z,15.75
2023-02-06T10:01:05.792Z,9.32
2023-02-06T10:04:05.353Z,16.08
2023-02-06T10:06:43.135Z,15.63
2023-02-06T10:09:19.814Z,16.42
2023-02-06T10:11:56.683Z,17.35
2023-02-06T10:14:33.826Z,14.95
2023-02-06T10:17:06.269Z,15.48
2023-02-06T10:19:46.730Z,14.65
2023-02-06T10:22:21.308Z,14.55
2023-02-06T10:25:04.237Z,14.27
2023-02-06T10:27:38.346Z,13.45
2023-02-06T10:30:09.263Z,13.88
2023-02-06T10:32:48.153Z,15.50
2023-02-06T10:35:37.871Z,14.82
2023-02-06T10:38:27.997Z,15.27
2023-02-06T10:41:04.595Z,14.50
2023-02-06T10:43:46.880Z,14.73
2023-02-06T10:46:38.857Z,14.27
2023-02-06T10:49:17.956Z,18.00
2023-02-06T10:51:53.237Z,13.40
2023-02-06T10:54:27.547Z,14.30
2023-02-06T10:57:01.070Z,13.68
2023-02-06T10:59:38.051Z,15.10
2023-02-06T11:02:22.833Z,14.50
2023-02-06T11:04:57.038Z,14.40
2023-02-06T11:07:30.951Z,13.60
2023-02-06T11:10:01.675Z,12.70
2023-02-06T11:12:37.252Z,14.15
2023-02-06T11:15:18.439Z,14.13
2023-02-06T11:17:49.455Z,13.13
2023-02-06T11:20:24.435Z,13.20
2023-02-06T11:22:55.430Z,14.70
2023-02-06T11:25:30.051Z,15.32
2023-02-06T11:28:01.266Z,14.18
2023-02-06T11:30:40.292Z,14.23
2023-02-06T11:33:20.703Z,13.48
2023-02-06T11:35:54.076Z,14.35
2023-02-06T11:38:27.909Z,13.75
2023-02-06T11:41:00.896Z,13.80
2023-02-06T11:43:34.490Z,13.73
2023-02-06T11:46:18.545Z,13.85
2023-02-06T11:48:50.104Z,12.02
2023-02-06T11:51:20.196Z,13.18
2023-02-06T11:54:03.479Z,19.85
2023-02-06T11:56:35.631Z,15.20
2023-02-06T11:59:08.356Z,13.23
2023-02-06T12:01:47.127Z,13.32
2023-02-06T12:04:24.826Z,13.05
2023-02-06T12:07:04.336Z,12.60
2023-02-06T12:09:34.760Z,13.52
2023-02-06T12:12:09.753Z,12.55
2023-02-06T12:14:45.080Z,14.05
2023-02-06T12:17:28.693Z,13.95
2023-02-06T12:20:08.391Z,12.70
2023-02-06T12:22:43.440Z,14.00
2023-02-06T12:25:27.886Z,15.35
2023-02-06T12:28:01.223Z,13.57
2023-02-06T12:30:40.455Z,13.15
2023-02-06T12:33:17.782Z,10.80
2023-02-06T12:35:51.693Z,12.10
2023-02-06T12:38:40.529Z,12.32
2023-02-06T12:41:24.456Z,11.27
2023-02-06T12:43:59.386Z,13.10
2023-02-06T12:46:31.709Z,13.02
2023-02-06T12:49:10.411Z,12.77
2023-02-06T12:51:44.259Z,10.98
2023-02-06T12:54:22.718Z,13.98
2023-02-06T12:56:58.399Z,13.43
2023-02-06T12:59:57.943Z,14.73
2023-02-06T13:03:01.302Z,14.27
2023-02-06T13:05:39.032Z,12.00
2023-02-06T13:08:12.442Z,13.60
2023-02-06T13:10:43.690Z,13.93
2023-02-06T13:13:29.984Z,13.25
2023-02-06T13:16:02.686Z,13.05
2023-02-06T13:18:55.370Z,15.43
2023-02-06T13:21:32.497Z,13.70
2023-02-06T13:24:23.455Z,13.10
2023-02-06T13:29:41.705Z,13.40
2023-02-06T13:32:48.276Z,14.35
2023-02-06T13:35:31.543Z,13.95
2023-02-06T13:38:42.530Z,12.43
2023-02-06T13:41:32.111Z,13.35
2023-02-06T13:44:07.271Z,15.13
2023-02-06T13:47:13.093Z,13.40
2023-02-06T13:50:12.984Z,12.07
2023-02-06T13:52:52.728Z,13.18
2023-02-06T13:55:40.615Z,15.10
2023-02-06T13:58:39.337Z,13.70
2023-02-06T14:01:20.186Z,17.33
2023-02-06T14:03:52.882Z,13.95
2023-02-06T14:06:41.639Z,14.13
2023-02-06T14:09:30.837Z,13.98
2023-02-06T14:12:27.068Z,14.20
2023-02-06T14:15:09.337Z,11.63
2023-02-06T14:17:51.781Z,14.50
2023-02-06T14:20:34.741Z,13.98
2023-02-06T14:23:15.188Z,13.13
2023-02-06T14:25:57.189Z,13.23
2023-02-06T14:28:42.526Z,13.00
2023-02-06T14:31:23.052Z,13.63
2023-02-06T14:34:06.921Z,14.23
2023-02-06T14:36:54.436Z,15.68
2023-02-06T14:39:42.429Z,12.35
2023-02-06T14:42:18.901Z,19.92
2023-02-06T14:44:57.464Z,18.92
2023-02-06T14:47:31.899Z,16.40
2023-02-06T14:50:03.914Z,13.23
2023-02-06T14:52:35.124Z,14.45
2023-02-06T14:55:31.634Z,15.40
2023-02-06T14:58:02.367Z,15.38
2023-02-06T15:00:35.961Z,14.43
2023-02-06T15:03:09.229Z,16.25
2023-02-06T15:05:39.453Z,17.05
2023-02-06T15:08:12.016Z,16.40
2023-02-06T15:10:42.052Z,19.77
2023-02-06T15:13:24.379Z,17.25
2023-02-06T15:16:00.387Z,14.45
2023-02-06T15:18:30.547Z,15.82
2023-02-06T15:21:02.463Z,17.13
2023-02-06T15:23:49.314Z,15.80
2023-02-06T15:26:28.986Z,16.55
2023-02-06T15:29:00.900Z,19.02
2023-02-06T15:31:34.407Z,19.20
2023-02-06T15:34:05.916Z,18.42
2023-02-06T15:36:38.563Z,19.38
2023-02-06T15:39:10.885Z,18.45
2023-02-06T15:41:44.200Z,18.27
2023-02-06T15:44:26.309Z,16.63
2023-02-06T15:47:00.271Z,21.02
2023-02-06T15:49:41.152Z,22.52
2023-02-06T15:54:45.169Z,24.75
2023-02-06T15:57:34.640Z,20.17
2023-02-06T16:00:09.302Z,21.58
2023-02-06T16:02:44.719Z,23.60
2023-02-06T16:05:26.936Z,25.95
2023-02-06T16:07:57.566Z,24.75
2023-02-06T16:10:30.690Z,22.92
2023-02-06T16:13:03.987Z,23.63
2023-02-06T16:15:36.915Z,25.10
2023-02-06T16:18:34.515Z,19.92
2023-02-06T16:21:27.119Z,17.15
2023-02-06T16:24:07.916Z,17.10
2023-02-06T16:26:47.153Z,21.02
2023-02-06T16:29:27.495Z,23.48
2023-02-06T16:32:03.058Z,25.75
2023-02-06T16:34:39.620Z,26.08
2023-02-06T16:37:13.726Z,25.33
2023-02-06T16:39:45.206Z,24.83
2023-02-06T16:42:18.171Z,21.52
2023-02-06T16:44:50.451Z,20.83
2023-02-06T16:47:23.152Z,22.85
2023-02-06T16:49:55.941Z,22.88
2023-02-06T16:52:29.232Z,27.45
2023-02-06T16:55:01.197Z,28.15
2023-02-06T16:57:35.243Z,26.58
2023-02-06T17:00:07.938Z,20.80
2023-02-06T17:02:38.461Z,22.92
2023-02-06T17:05:11.337Z,21.75
2023-02-06T17:07:41.469Z,18.85
2023-02-06T17:10:12.473Z,20.60
2023-02-06T17:12:44.537Z,22.98
2023-02-06T17:15:16.511Z,24.75
2023-02-06T17:17:46.899Z,25.38
2023-02-06T17:20:31.166Z,30.52
2023-02-06T17:23:01.346Z,30.25
2023-02-06T17:25:31.716Z,28.48
2023-02-06T17:28:02.255Z,28.67
2023-02-06T17:30:32.526Z,29.05
2023-02-06T17:33:02.678Z,30.30
2023-02-06T17:35:38.817Z,31.00
2023-02-06T17:38:10.562Z,30.10
2023-02-06T17:40:42.248Z,29.73
2023-02-06T17:43:12.401Z,28.02
2023-02-06T17:45:43.587Z,26.45
2023-02-06T17:48:13.740Z,25.38
2023-02-06T17:50:46.777Z,25.50
2023-02-06T17:53:17.967Z,24.92
2023-02-06T17:55:47.989Z,39.15
2023-02-06T17:58:19.084Z,38.08
2023-02-06T18:00:51.229Z,27.92
2023-02-06T18:03:21.792Z,28.80
2023-02-06T18:06:02.734Z,30.35
2023-02-06T18:08:33.465Z,32.58
2023-02-06T18:13:33.855Z,31.25
2023-02-06T18:16:04.265Z,25.27
2023-02-06T18:18:34.722Z,25.48
2023-02-06T18:21:07.647Z,23.38
2023-02-06T18:23:37.808Z,24.23
2023-02-06T18:26:09.839Z,12.80
2023-02-06T18:28:41.646Z,25.85
2023-02-06T18:31:24.634Z,13.98
2023-02-06T18:33:55.679Z,16.05
2023-02-06T18:36:29.988Z,28.92
2023-02-06T18:39:00.562Z,30.52
2023-02-06T18:41:42.969Z,33.05
2023-02-06T18:44:14.785Z,30.60
2023-02-06T18:46:44.973Z,31.73
2023-02-06T18:49:15.637Z,27.17
2023-02-06T18:51:48.763Z,25.52
2023-02-06T18:54:19.941Z,27.70
2023-02-06T18:56:50.202Z,27.50
2023-02-06T18:59:20.477Z,25.55
2023-02-06T19:01:52.029Z,26.45
2023-02-06T19:04:22.986Z,27.92
2023-02-06T19:06:55.672Z,27.30
2023-02-06T19:09:26.330Z,28.77
2023-02-06T19:11:56.508Z,26.70
2023-02-06T19:14:26.853Z,28.20
2023-02-06T19:16:58.539Z,24.98
2023-02-06T19:19:28.656Z,27.40
2023-02-06T19:22:01.343Z,29.48
2023-02-06T19:24:31.783Z,26.23
2023-02-06T19:27:02.289Z,27.48
2023-02-06T19:29:36.222Z,26.05
2023-02-06T19:32:07.674Z,29.92
2023-02-06T19:34:40.240Z,28.92
2023-02-06T19:37:13.754Z,28.42
2023-02-06T19:39:44.900Z,25.48
2023-02-06T19:42:17.193Z,26.38
2023-02-06T19:44:47.557Z,32.33
2023-02-06T19:47:17.817Z,26.88
2023-02-06T19:49:47.888Z,14.45
2023-02-06T19:52:20.703Z,29.77
2023-02-06T19:54:50.871Z,31.17
2023-02-06T19:57:22.757Z,25.75
2023-02-06T19:59:53.233Z,12.63
2023-02-06T20:02:23.392Z,28.63
2023-02-06T20:04:53.585Z,30.17
2023-02-06T20:07:27.022Z,26.88
2023-02-06T20:09:57.324Z,26.88
2023-02-06T20:12:27.973Z,25.70
2023-02-06T20:14:58.064Z,27.38
2023-02-06T20:17:28.184Z,14.07
2023-02-06T20:20:01.597Z,16.80
2023-02-06T20:22:34.416Z,13.63
2023-02-06T20:25:04.520Z,14.88
2023-02-06T20:27:34.859Z,14.57
2023-02-06T20:30:04.949Z,15.52
2023-02-06T20:32:35.141Z,27.13
2023-02-06T20:35:05.344Z,26.77
2023-02-06T20:37:38.372Z,25.00
2023-02-06T20:40:09.167Z,12.63
2023-02-06T20:45:16.413Z,11.77
2023-02-06T20:47:46.830Z,12.60
2023-02-06T20:50:16.998Z,25.00
2023-02-06T20:52:49.949Z,26.88
2023-02-06T20:55:20.198Z,29.00
2023-02-06T20:57:50.741Z,29.80
2023-02-06T21:00:21.581Z,18.50
2023-02-06T21:02:53.171Z,21.27
2023-02-06T21:05:23.462Z,47.35
2023-02-06T21:07:57.647Z,23.80
2023-02-06T21:10:28.012Z,19.92
2023-02-06T21:12:58.189Z,43.17
2023-02-06T21:15:28.358Z,20.55
2023-02-06T21:17:58.440Z,15.88
2023-02-06T21:20:28.642Z,18.58
2023-02-06T21:23:01.378Z,16.00
2023-02-06T21:25:31.481Z,13.45
2023-02-06T21:28:01.768Z,14.82
2023-02-06T21:30:32.272Z,12.43
2023-02-06T21:33:02.313Z,13.90
2023-02-06T21:35:33.968Z,14.77
2023-02-06T21:38:06.675Z,15.13
2023-02-06T21:40:36.952Z,25.35
2023-02-06T21:43:07.060Z,26.38
2023-02-06T21:45:37.533Z,13.43
2023-02-06T21:48:08.116Z,14.20
2023-02-06T21:50:41.729Z,13.55
2023-02-06T21:53:14.881Z,13.48
2023-02-06T21:55:46.203Z,14.32
2023-02-06T21:58:17.160Z,28.02
2023-02-06T22:00:50.231Z,30.05
2023-02-06T22:03:22.962Z,19.40
2023-02-06T22:05:53.106Z,16.50
2023-02-06T22:08:25.873Z,29.60
2023-02-06T22:10:55.939Z,13.85
2023-02-06T22:13:26.051Z,25.83
2023-02-06T22:15:56.183Z,25.88
2023-02-06T22:18:26.220Z,23.92
2023-02-06T22:21:06.473Z,12.75
2023-02-06T22:23:39.444Z,25.02
2023-02-06T22:26:10.581Z,25.88
2023-02-06T22:28:41.086Z,25.85
2023-02-06T22:31:13.600Z,25.20
2023-02-06T22:33:44.085Z,13.20
2023-02-06T22:36:15.738Z,14.18
2023-02-06T22:38:49.695Z,26.85
2023-02-06T22:41:20.214Z,15.30
2023-02-06T22:43:52.619Z,26.90
2023-02-06T22:46:24.743Z,27.10
2023-02-06T22:48:55.475Z,12.60
2023-02-06T22:53:58.278Z,11.95
2023-02-06T22:56:36.245Z,11.45
2023-02-06T22:59:08.715Z,11.90
2023-02-06T23:01:40.866Z,12.43
2023-02-06T23:04:14.970Z,12.95
2023-02-06T23:06:45.562Z,13.88
2023-02-06T23:09:21.258Z,27.90
2023-02-06T23:11:52.377Z,28.67
2023-02-06T23:14:22.950Z,15.88
2023-02-06T23:16:53.793Z,13.75
2023-02-06T23:21:54.380Z,13.93
2023-02-06T23:24:27.129Z,14.57
2023-02-06T23:26:57.300Z,12.98
2023-02-06T23:29:27.410Z,14.52
2023-02-06T23:31:57.563Z,12.90
2023-02-06T23:34:27.690Z,13.63
2023-02-06T23:36:57.752Z,26.92
2023-02-06T23:39:30.436Z,14.57
2023-02-06T23:42:00.520Z,13.32
2023-02-06T23:44:30.658Z,13.77
2023-02-06T23:47:00.970Z,15.27
2023-02-06T23:49:31.022Z,14.35
2023-02-06T23:52:00.972Z,13.27
2023-02-06T23:54:33.655Z,14.32
2023-02-06T23:57:03.747Z,13.77
2023-02-06T23:59:33.763Z,16.90
